createdAt,value
2023-04-23T00:00:56.810Z,64.4
2023-04-23T00:01:57.980Z,64.4
2023-04-23T00:02:59.437Z,64.4
2023-04-23T00:04:01.465Z,64.5
2023-04-23T00:05:03.393Z,64.5
2023-04-23T00:06:04.647Z,64.6
2023-04-23T00:07:05.848Z,64.6
2023-04-23T00:08:06.990Z,64.6
2023-04-23T00:09:08.146Z,64.7
2023-04-23T00:10:09.307Z,64.8
2023-04-23T00:11:10.540Z,64.8
2023-04-23T00:12:11.705Z,64.9
2023-04-23T00:13:12.867Z,65
2023-04-23T00:14:14.037Z,65
2023-04-23T00:15:15.209Z,65.1
2023-04-23T00:16:16.378Z,65.2
2023-04-23T00:17:17.541Z,65.3
2023-04-23T00:18:18.700Z,65.4
2023-04-23T00:19:20.104Z,65.5
2023-04-23T00:20:21.272Z,65.6
2023-04-23T00:21:22.442Z,65.7
2023-04-23T00:22:23.704Z,65.8
2023-04-23T00:23:24.830Z,65.9
2023-04-23T00:24:25.999Z,65.9
2023-04-23T00:25:27.163Z,66
2023-04-23T00:26:28.327Z,66.1
2023-04-23T00:27:30.133Z,66.2
2023-04-23T00:28:31.290Z,66.3
2023-04-23T00:29:32.459Z,66.3
2023-04-23T00:30:33.629Z,66.4
2023-04-23T00:31:34.854Z,66.5
2023-04-23T00:32:36.119Z,66.6
2023-04-23T00:33:37.276Z,66.7
2023-04-23T00:34:38.493Z,66.7
2023-04-23T00:35:39.644Z,66.8
2023-04-23T00:36:40.800Z,66.9
2023-04-23T00:37:41.990Z,67
2023-04-23T00:38:43.140Z,67.1
2023-04-23T00:39:44.299Z,67.1
2023-04-23T00:40:45.478Z,67.2
2023-04-23T00:41:46.633Z,67.3
2023-04-23T00:42:47.795Z,67.4
2023-04-23T00:43:48.969Z,67.4
2023-04-23T00:44:50.127Z,67.5
2023-04-23T00:45:51.483Z,67.6
2023-04-23T00:46:52.663Z,67.6
2023-04-23T00:47:53.948Z,67.7
2023-04-23T00:48:55.091Z,67.7
2023-04-23T00:49:56.259Z,67.7
2023-04-23T00:50:57.422Z,67.8
2023-04-23T00:51:58.586Z,67.8
2023-04-23T00:52:59.809Z,67.8
2023-04-23T00:54:01.032Z,67.8
2023-04-23T00:55:02.247Z,67.8
2023-04-23T00:56:03.390Z,67.8
2023-04-23T00:57:04.570Z,67.8
2023-04-23T00:58:05.740Z,67.8
2023-04-23T00:59:06.910Z,67.8
2023-04-23T01:00:08.112Z,67.8
2023-04-23T01:01:09.415Z,67.8
2023-04-23T01:02:10.974Z,67.8
2023-04-23T01:03:12.731Z,67.8
2023-04-23T01:04:14.076Z,67.8
2023-04-23T01:05:15.325Z,67.8
2023-04-23T01:06:16.491Z,67.8
2023-04-23T01:07:17.709Z,67.8
2023-04-23T01:08:18.944Z,67.8
2023-04-23T01:09:20.068Z,67.8
2023-04-23T01:10:21.239Z,67.9
2023-04-23T01:11:22.401Z,67.9
2023-04-23T01:12:23.567Z,67.9
2023-04-23T01:13:24.730Z,67.9
2023-04-23T01:14:25.916Z,67.9
2023-04-23T01:15:27.092Z,68
2023-04-23T01:16:28.265Z,68
2023-04-23T01:17:29.490Z,68
2023-04-23T01:18:30.661Z,68
2023-04-23T01:19:31.826Z,68
2023-04-23T01:20:32.992Z,68
2023-04-23T01:21:34.162Z,68.1
2023-04-23T01:22:35.349Z,68.1
2023-04-23T01:23:36.551Z,68.1
2023-04-23T01:24:37.745Z,68.1
2023-04-23T01:25:38.895Z,68.1
2023-04-23T01:26:40.077Z,68.1
2023-04-23T01:27:41.240Z,68.1
2023-04-23T01:28:42.405Z,68.1
2023-04-23T01:29:43.561Z,68.1
2023-04-23T01:30:44.910Z,68.1
2023-04-23T01:31:46.073Z,68.2
2023-04-23T01:32:47.275Z,68.2
2023-04-23T01:33:48.423Z,68.2
2023-04-23T01:34:49.589Z,68.3
2023-04-23T01:35:50.755Z,68.3
2023-04-23T01:36:51.921Z,68.4
2023-04-23T01:37:53.134Z,68.4
2023-04-23T01:38:54.552Z,68.4
2023-04-23T01:39:55.696Z,68.5
2023-04-23T01:40:56.866Z,68.6
2023-04-23T01:41:58.031Z,68.6
2023-04-23T01:42:59.190Z,68.6
2023-04-23T01:44:00.367Z,68.7
2023-04-23T01:45:01.533Z,68.8
2023-04-23T01:46:02.706Z,68.8
2023-04-23T01:47:07.464Z,68.9
2023-04-23T01:48:08.630Z,69
2023-04-23T01:49:09.797Z,69
2023-04-23T01:50:10.965Z,69.1
2023-04-23T01:51:12.145Z,69.1
2023-04-23T01:52:13.298Z,69.1
2023-04-23T01:53:14.472Z,69.2
2023-04-23T01:54:15.647Z,69.2
2023-04-23T01:55:16.802Z,69.2
2023-04-23T01:56:17.959Z,69.3
2023-04-23T01:57:19.124Z,69.3
2023-04-23T01:58:20.287Z,69.3
2023-04-23T01:59:21.454Z,69.4
2023-04-23T02:00:22.620Z,69.4
2023-04-23T02:01:23.878Z,69.4
2023-04-23T02:02:25.124Z,69.5
2023-04-23T02:03:26.712Z,69.5
2023-04-23T02:04:28.514Z,69.5
2023-04-23T02:05:29.723Z,69.6
2023-04-23T02:06:30.887Z,69.6
2023-04-23T02:07:32.055Z,69.6
2023-04-23T02:08:33.214Z,69.7
2023-04-23T02:09:34.642Z,69.7
2023-04-23T02:10:35.782Z,69.7
2023-04-23T02:11:36.954Z,69.8
2023-04-23T02:12:38.116Z,69.8
2023-04-23T02:13:39.303Z,69.9
2023-04-23T02:14:41.337Z,69.9
2023-04-23T02:15:42.772Z,70
2023-04-23T02:16:43.922Z,70
2023-04-23T02:17:45.128Z,70.1
2023-04-23T02:18:46.276Z,70.1
2023-04-23T02:19:47.445Z,70.2
2023-04-23T02:20:48.608Z,70.2
2023-04-23T02:21:49.775Z,70.3
2023-04-23T02:22:50.937Z,70.4
2023-04-23T02:23:52.108Z,70.4
2023-04-23T02:24:53.310Z,70.5
2023-04-23T02:25:54.450Z,70.5
2023-04-23T02:26:55.618Z,70.6
2023-04-23T02:27:56.778Z,70.7
2023-04-23T02:28:57.950Z,70.8
2023-04-23T02:29:59.108Z,70.9
2023-04-23T02:31:00.279Z,70.9
2023-04-23T02:32:01.448Z,71
2023-04-23T02:33:02.710Z,71.1
2023-04-23T02:34:03.875Z,71.2
2023-04-23T02:35:05.069Z,71.2
2023-04-23T02:36:06.201Z,71.3
2023-04-23T02:37:07.374Z,71.4
2023-04-23T02:38:08.542Z,71.4
2023-04-23T02:39:09.705Z,71.5
2023-04-23T02:40:10.973Z,71.6
2023-04-23T02:41:12.127Z,71.6
2023-04-23T02:42:13.288Z,71.7
2023-04-23T02:43:14.443Z,71.7
2023-04-23T02:44:15.611Z,71.8
2023-04-23T02:45:16.780Z,71.8
2023-04-23T02:46:17.969Z,71.9
2023-04-23T02:47:19.110Z,71.9
2023-04-23T02:48:20.277Z,72
2023-04-23T02:49:21.436Z,72
2023-04-23T02:50:22.611Z,72.1
2023-04-23T02:51:23.770Z,72.1
2023-04-23T02:52:24.946Z,72.2
2023-04-23T02:53:26.106Z,72.2
2023-04-23T02:54:27.272Z,72.3
2023-04-23T02:55:28.528Z,72.3
2023-04-23T02:56:29.666Z,72.4
2023-04-23T02:57:30.835Z,72.5
2023-04-23T02:58:32.061Z,72.5
2023-04-23T02:59:33.241Z,72.6
2023-04-23T03:00:34.409Z,72.7
2023-04-23T03:01:35.588Z,72.8
2023-04-23T03:02:37.111Z,72.8
2023-04-23T03:03:39.139Z,72.9
2023-04-23T03:04:41.606Z,73
2023-04-23T03:05:42.909Z,73
2023-04-23T03:06:44.074Z,73.1
2023-04-23T03:07:45.243Z,73.1
2023-04-23T03:08:46.405Z,73.2
2023-04-23T03:09:47.572Z,73.3
2023-04-23T03:10:48.765Z,73.3
2023-04-23T03:11:49.914Z,73.4
2023-04-23T03:12:51.074Z,73.4
2023-04-23T03:13:52.236Z,73.5
2023-04-23T03:14:53.403Z,73.5
2023-04-23T03:15:54.571Z,73.6
2023-04-23T03:16:55.786Z,73.6
2023-04-23T03:17:56.999Z,73.7
2023-04-23T03:18:58.140Z,73.7
2023-04-23T03:19:59.303Z,73.8
2023-04-23T03:21:00.471Z,73.8
2023-04-23T03:22:01.641Z,73.9
2023-04-23T03:23:02.802Z,74
2023-04-23T03:24:03.967Z,74
2023-04-23T03:25:05.151Z,74.1
2023-04-23T03:26:06.332Z,74.2
2023-04-23T03:27:07.469Z,74.2
2023-04-23T03:28:08.634Z,74.3
2023-04-23T03:29:09.800Z,74.3
2023-04-23T03:30:11.007Z,74.4
2023-04-23T03:31:12.224Z,74.4
2023-04-23T03:32:13.388Z,74.5
2023-04-23T03:33:14.557Z,74.6
2023-04-23T03:34:15.717Z,74.6
2023-04-23T03:35:16.886Z,74.7
2023-04-23T03:36:18.053Z,74.7
2023-04-23T03:37:19.218Z,74.8
2023-04-23T03:38:20.382Z,74.8
2023-04-23T03:39:21.550Z,74.9
2023-04-23T03:40:22.715Z,75
2023-04-23T03:41:23.903Z,75
2023-04-23T03:42:25.048Z,75.1
2023-04-23T03:43:26.212Z,75.2
2023-04-23T03:44:27.380Z,75.2
2023-04-23T03:45:28.551Z,75.3
2023-04-23T03:46:29.833Z,75.4
2023-04-23T03:47:31.080Z,75.5
2023-04-23T03:48:32.228Z,75.5
2023-04-23T03:49:33.430Z,75.6
2023-04-23T03:50:34.597Z,75.7
2023-04-23T03:51:35.766Z,75.8
2023-04-23T03:52:36.945Z,75.8
2023-04-23T03:53:38.100Z,75.9
2023-04-23T03:54:39.803Z,76
2023-04-23T03:55:41.223Z,76
2023-04-23T03:56:42.413Z,76.1
2023-04-23T03:57:43.556Z,76.1
2023-04-23T03:58:44.716Z,76.2
2023-04-23T03:59:45.881Z,76.3
2023-04-23T04:00:47.051Z,76.3
2023-04-23T04:01:48.217Z,76.3
2023-04-23T04:02:49.734Z,76.4
2023-04-23T04:03:51.665Z,76.5
2023-04-23T04:04:53.619Z,76.5
2023-04-23T04:05:55.172Z,76.6
2023-04-23T04:06:56.387Z,76.6
2023-04-23T04:07:57.539Z,76.6
2023-04-23T04:08:58.708Z,76.7
2023-04-23T04:09:59.873Z,76.7
2023-04-23T04:11:01.044Z,76.8
2023-04-23T04:12:02.246Z,76.8
2023-04-23T04:13:03.384Z,76.9
2023-04-23T04:14:04.549Z,76.9
2023-04-23T04:15:05.787Z,76.9
2023-04-23T04:16:06.957Z,77
2023-04-23T04:17:08.096Z,77
2023-04-23T04:18:09.262Z,77.1
2023-04-23T04:19:10.427Z,77.1
2023-04-23T04:20:11.614Z,77.2
2023-04-23T04:21:12.791Z,77.2
2023-04-23T04:22:13.948Z,77.3
2023-04-23T04:23:15.148Z,77.3
2023-04-23T04:24:16.337Z,77.3
2023-04-23T04:25:17.491Z,77.4
2023-04-23T04:26:18.643Z,77.4
2023-04-23T04:27:19.843Z,77.5
2023-04-23T04:28:20.978Z,77.5
2023-04-23T04:29:22.147Z,77.6
2023-04-23T04:30:23.313Z,77.6
2023-04-23T04:31:24.539Z,77.6
2023-04-23T04:32:25.701Z,77.7
2023-04-23T04:33:26.893Z,77.7
2023-04-23T04:34:28.055Z,77.7
2023-04-23T04:35:29.215Z,77.8
2023-04-23T04:36:30.379Z,77.8
2023-04-23T04:37:31.550Z,77.9
2023-04-23T04:38:32.714Z,77.9
2023-04-23T04:39:33.907Z,77.9
2023-04-23T04:40:35.049Z,77.9
2023-04-23T04:41:36.213Z,78
2023-04-23T04:42:37.397Z,78
2023-04-23T04:43:38.543Z,78
2023-04-23T04:44:40.300Z,78.1
2023-04-23T04:45:41.663Z,78.1
2023-04-23T04:46:42.981Z,78.1
2023-04-23T04:47:44.268Z,78.2
2023-04-23T04:48:45.409Z,78.2
2023-04-23T04:49:46.570Z,78.2
2023-04-23T04:50:47.758Z,78.2
2023-04-23T04:51:48.930Z,78.2
2023-04-23T04:52:50.097Z,78.3
2023-04-23T04:53:51.258Z,78.3
2023-04-23T04:54:52.426Z,78.3
2023-04-23T04:55:53.597Z,78.4
2023-04-23T04:56:54.755Z,78.4
2023-04-23T04:57:56.037Z,78.4
2023-04-23T04:58:57.180Z,78.4
2023-04-23T04:59:58.344Z,78.4
2023-04-23T05:00:59.520Z,78.4
2023-04-23T05:02:00.802Z,78.4
2023-04-23T05:03:02.417Z,78.4
2023-04-23T05:04:04.724Z,78.4
2023-04-23T05:05:06.185Z,78.4
2023-04-23T05:06:07.341Z,78.4
2023-04-23T05:07:08.533Z,78.4
2023-04-23T05:08:09.671Z,78.4
2023-04-23T05:09:10.839Z,78.4
2023-04-23T05:10:12.006Z,78.4
2023-04-23T05:11:13.203Z,78.4
2023-04-23T05:12:14.356Z,78.3
2023-04-23T05:13:15.542Z,78.3
2023-04-23T05:14:16.688Z,78.3
2023-04-23T05:15:17.856Z,78.3
2023-04-23T05:16:19.031Z,78.3
2023-04-23T05:17:20.271Z,78.3
2023-04-23T05:18:21.422Z,78.4
2023-04-23T05:19:22.587Z,78.4
2023-04-23T05:20:23.749Z,78.4
2023-04-23T05:21:24.915Z,78.4
2023-04-23T05:22:26.084Z,78.4
2023-04-23T05:23:27.252Z,78.4
2023-04-23T05:24:28.412Z,78.4
2023-04-23T05:25:29.578Z,78.4
2023-04-23T05:26:30.769Z,78.4
2023-04-23T05:27:31.969Z,78.4
2023-04-23T05:28:33.151Z,78.4
2023-04-23T05:29:34.298Z,78.4
2023-04-23T05:30:35.458Z,78.4
2023-04-23T05:31:36.665Z,78.3
2023-04-23T05:32:37.869Z,78.3
2023-04-23T05:33:51.475Z,78.3
2023-04-23T05:34:52.625Z,78.3
2023-04-23T05:35:53.790Z,78.2
2023-04-23T05:36:54.955Z,78.2
2023-04-23T05:37:56.121Z,78.2
2023-04-23T05:38:57.292Z,78.2
2023-04-23T05:39:58.449Z,78.2
2023-04-23T05:40:59.617Z,78.1
2023-04-23T05:42:00.786Z,78.1
2023-04-23T05:43:01.948Z,78.1
2023-04-23T05:44:03.140Z,78.1
2023-04-23T05:45:04.593Z,78.1
2023-04-23T05:46:06.273Z,78
2023-04-23T05:47:07.429Z,78
2023-04-23T05:48:08.595Z,78
2023-04-23T05:49:09.764Z,78
2023-04-23T05:50:10.930Z,78
2023-04-23T05:51:12.102Z,78
2023-04-23T05:52:13.261Z,78
2023-04-23T05:53:14.428Z,78
2023-04-23T05:54:15.596Z,78
2023-04-23T05:55:16.753Z,78
2023-04-23T05:56:17.919Z,78
2023-04-23T05:57:19.090Z,78
2023-04-23T05:58:20.257Z,77.9
2023-04-23T05:59:21.458Z,77.9
2023-04-23T06:00:22.596Z,77.9
2023-04-23T06:01:23.762Z,77.9
2023-04-23T06:02:26.271Z,77.8
2023-04-23T06:03:28.400Z,77.8
2023-04-23T06:04:30.824Z,77.7
2023-04-23T06:05:32.531Z,77.7
2023-04-23T06:06:33.756Z,77.7
2023-04-23T06:07:34.918Z,77.7
2023-04-23T06:08:36.092Z,77.7
2023-04-23T06:09:37.261Z,77.7
2023-04-23T06:10:38.423Z,77.7
2023-04-23T06:11:39.603Z,77.7
2023-04-23T06:12:40.751Z,77.7
2023-04-23T06:13:44.565Z,77.7
2023-04-23T06:14:45.795Z,77.7
2023-04-23T06:15:47.062Z,77.6
2023-04-23T06:16:48.215Z,77.6
2023-04-23T06:17:49.389Z,77.6
2023-04-23T06:18:50.542Z,77.6
2023-04-23T06:19:51.707Z,77.6
2023-04-23T06:20:52.879Z,77.6
2023-04-23T06:21:54.040Z,77.7
2023-04-23T06:22:55.205Z,77.7
2023-04-23T06:23:56.372Z,77.6
2023-04-23T06:24:57.538Z,77.6
2023-04-23T06:25:58.706Z,77.7
2023-04-23T06:26:59.871Z,77.7
2023-04-23T06:28:01.041Z,77.8
2023-04-23T06:29:02.201Z,77.8
2023-04-23T06:30:03.407Z,77.8
2023-04-23T06:31:04.639Z,77.8
2023-04-23T06:32:05.783Z,77.8
2023-04-23T06:33:06.970Z,77.7
2023-04-23T06:34:08.134Z,77.7
2023-04-23T06:35:09.948Z,77.7
2023-04-23T06:36:11.140Z,77.7
2023-04-23T06:37:12.297Z,77.6
2023-04-23T06:38:13.463Z,77.6
2023-04-23T06:39:14.633Z,77.5
2023-04-23T06:40:15.799Z,77.5
2023-04-23T06:41:16.963Z,77.4
2023-04-23T06:42:18.124Z,77.4
2023-04-23T06:43:19.292Z,77.3
2023-04-23T06:44:20.472Z,77.3
2023-04-23T06:45:21.738Z,77.3
2023-04-23T06:46:22.934Z,77.2
2023-04-23T06:47:24.083Z,77.2
2023-04-23T06:48:25.247Z,77.1
2023-04-23T06:49:26.415Z,77
2023-04-23T06:50:27.616Z,76.9
2023-04-23T06:51:28.783Z,76.8
2023-04-23T06:52:29.952Z,76.7
2023-04-23T06:53:31.116Z,76.5
2023-04-23T06:54:32.280Z,76.4
2023-04-23T06:55:33.444Z,76.2
2023-04-23T06:56:34.909Z,76.1
2023-04-23T06:57:36.433Z,75.9
2023-04-23T06:58:37.607Z,75.8
2023-04-23T06:59:38.764Z,75.6
2023-04-23T07:00:40.069Z,75.5
2023-04-23T07:01:41.196Z,75.3
2023-04-23T07:02:42.761Z,75.1
2023-04-23T07:03:46.017Z,75
2023-04-23T07:04:48.374Z,74.9
2023-04-23T07:05:49.534Z,74.9
2023-04-23T07:06:50.703Z,74.9
2023-04-23T07:07:51.869Z,74.9
2023-04-23T07:08:53.033Z,74.9
2023-04-23T07:09:54.203Z,74.9
2023-04-23T07:10:55.676Z,75
2023-04-23T07:11:57.023Z,75
2023-04-23T07:12:58.199Z,75
2023-04-23T07:13:59.352Z,75
2023-04-23T07:15:00.577Z,75
2023-04-23T07:16:01.771Z,75
2023-04-23T07:17:03.170Z,74.9
2023-04-23T07:18:04.399Z,74.9
2023-04-23T07:19:05.568Z,74.8
2023-04-23T07:20:06.812Z,74.7
2023-04-23T07:21:08.059Z,74.7
2023-04-23T07:22:09.230Z,74.6
2023-04-23T07:23:10.392Z,74.6
2023-04-23T07:24:11.562Z,74.6
2023-04-23T07:25:12.733Z,74.5
2023-04-23T07:26:13.896Z,74.5
2023-04-23T07:27:15.063Z,74.5
2023-04-23T07:28:16.234Z,74.5
2023-04-23T07:29:17.395Z,74.4
2023-04-23T07:30:18.568Z,74.3
2023-04-23T07:31:19.752Z,74.3
2023-04-23T07:32:20.958Z,74.2
2023-04-23T07:33:22.370Z,74.1
2023-04-23T07:34:23.673Z,74
2023-04-23T07:35:24.837Z,73.8
2023-04-23T07:36:26.024Z,73.7
2023-04-23T07:37:27.166Z,73.6
2023-04-23T07:38:30.389Z,73.6
2023-04-23T07:39:31.560Z,73.6
2023-04-23T07:40:32.717Z,73.5
2023-04-23T07:41:33.885Z,73.5
2023-04-23T07:42:35.050Z,73.4
2023-04-23T07:43:36.215Z,73.4
2023-04-23T07:44:37.382Z,73.3
2023-04-23T07:45:38.680Z,73.2
2023-04-23T07:46:39.848Z,73.2
2023-04-23T07:47:41.007Z,73.2
2023-04-23T07:48:42.164Z,73.1
2023-04-23T07:49:44.682Z,73.1
2023-04-23T07:50:45.953Z,73
2023-04-23T07:51:47.124Z,72.9
2023-04-23T07:52:48.285Z,72.7
2023-04-23T07:53:49.452Z,72.5
2023-04-23T07:54:50.616Z,72.3
2023-04-23T07:55:51.785Z,72
2023-04-23T07:56:52.960Z,71.7
2023-04-23T07:57:54.124Z,71.3
2023-04-23T07:58:55.289Z,70.9
2023-04-23T07:59:56.451Z,70.3
2023-04-23T08:00:57.617Z,69.9
2023-04-23T08:01:58.827Z,69.3
2023-04-23T08:03:00.518Z,67.9
2023-04-23T08:04:02.601Z,67.7
2023-04-23T08:05:04.384Z,67.1
2023-04-23T08:06:05.622Z,66.6
2023-04-23T08:07:06.787Z,66.4
2023-04-23T08:08:07.956Z,65.2
2023-04-23T08:09:09.118Z,64.1
2023-04-23T08:10:10.313Z,64.4
2023-04-23T08:11:11.452Z,62.2
2023-04-23T08:12:12.619Z,62.9
2023-04-23T08:13:13.780Z,62.6
2023-04-23T08:14:14.948Z,62.1
2023-04-23T08:15:16.117Z,61.4
2023-04-23T08:16:17.329Z,60
2023-04-23T08:17:18.521Z,58.7
2023-04-23T08:18:19.662Z,57.2
2023-04-23T08:19:20.860Z,56
2023-04-23T08:20:21.994Z,53.2
2023-04-23T08:21:23.158Z,52.1
2023-04-23T08:22:24.330Z,53.1
2023-04-23T08:23:25.490Z,50.9
2023-04-23T08:24:26.700Z,51.9
2023-04-23T08:25:27.919Z,49.6
2023-04-23T08:26:29.066Z,48
2023-04-23T08:27:30.248Z,47.1
2023-04-23T08:28:31.467Z,48.4
2023-04-23T08:29:32.613Z,48.7
2023-04-23T08:30:33.769Z,46.8
2023-04-23T08:31:35.040Z,45.8
2023-04-23T08:32:36.292Z,44.7
2023-04-23T08:33:37.458Z,43.8
2023-04-23T08:34:38.632Z,43
2023-04-23T08:35:39.794Z,42.7
2023-04-23T08:36:41.036Z,42.1
2023-04-23T08:37:42.211Z,41.5
2023-04-23T08:38:43.369Z,40.6
2023-04-23T08:39:45.822Z,39.7
2023-04-23T08:40:47.191Z,39.1
2023-04-23T08:41:48.358Z,38
2023-04-23T08:42:49.584Z,37
2023-04-23T08:43:50.811Z,36.3
2023-04-23T08:44:51.925Z,35.7
2023-04-23T08:45:53.092Z,35.1
2023-04-23T08:46:54.327Z,34.6
2023-04-23T08:47:55.655Z,33.9
2023-04-23T08:48:56.796Z,31.1
2023-04-23T08:49:57.966Z,33.1
2023-04-23T08:50:59.133Z,32.5
2023-04-23T08:52:00.315Z,31.9
2023-04-23T08:53:01.471Z,31.3
2023-04-23T08:54:02.640Z,30.7
2023-04-23T08:55:03.796Z,30.2
2023-04-23T08:56:04.964Z,29.7
2023-04-23T08:57:06.139Z,29.3
2023-04-23T08:58:07.290Z,28.9
2023-04-23T08:59:08.460Z,28.6
2023-04-23T09:00:09.627Z,28.2
2023-04-23T09:01:10.853Z,27.8
2023-04-23T09:02:12.245Z,27.4
2023-04-23T09:03:14.098Z,27
2023-04-23T09:04:15.348Z,26.9
2023-04-23T09:05:16.516Z,26.5
2023-04-23T09:06:17.679Z,26.1
2023-04-23T09:07:18.849Z,25.8
2023-04-23T09:08:20.016Z,25.5
2023-04-23T09:09:21.259Z,25.3
2023-04-23T09:10:22.405Z,25
2023-04-23T09:11:23.580Z,24.7
2023-04-23T09:12:24.749Z,24.2
2023-04-23T09:13:25.917Z,22.7
2023-04-23T09:14:27.105Z,23.1
2023-04-23T09:15:28.265Z,23.4
2023-04-23T09:16:29.461Z,23.1
2023-04-23T09:17:30.688Z,23
2023-04-23T09:18:31.881Z,22.7
2023-04-23T09:19:33.024Z,22.4
2023-04-23T09:20:34.189Z,22.4
2023-04-23T09:21:35.355Z,22
2023-04-23T09:22:36.519Z,21.8
2023-04-23T09:23:37.683Z,21.5
2023-04-23T09:24:38.892Z,21.3
2023-04-23T09:25:40.042Z,21.2
2023-04-23T09:26:41.204Z,21
2023-04-23T09:27:42.373Z,20.1
2023-04-23T09:28:43.553Z,20
2023-04-23T09:29:44.769Z,19.3
2023-04-23T09:30:45.945Z,18.9
2023-04-23T09:31:47.199Z,18.7
2023-04-23T09:32:48.872Z,18.6
2023-04-23T09:33:50.048Z,18.2
2023-04-23T09:34:51.194Z,17.9
2023-04-23T09:35:52.357Z,17.7
2023-04-23T09:36:53.588Z,17.7
2023-04-23T09:37:54.752Z,17.7
2023-04-23T09:38:55.915Z,17.8
2023-04-23T09:39:57.091Z,17.5
2023-04-23T09:40:58.257Z,17.6
2023-04-23T09:41:59.418Z,17.7
2023-04-23T09:43:00.586Z,17.7
2023-04-23T09:44:01.752Z,17.8
2023-04-23T09:45:02.965Z,17.8
2023-04-23T09:46:04.159Z,17.6
2023-04-23T09:47:05.372Z,17.5
2023-04-23T09:48:06.665Z,17.3
2023-04-23T09:49:07.908Z,17.2
2023-04-23T09:50:09.074Z,17.4
2023-04-23T09:51:10.233Z,17.4
2023-04-23T09:52:11.402Z,17.2
2023-04-23T09:53:12.571Z,17.1
2023-04-23T09:54:13.732Z,17
2023-04-23T09:55:14.914Z,17.2
2023-04-23T09:56:16.064Z,17.3
2023-04-23T09:57:17.224Z,17.1
2023-04-23T09:58:18.394Z,17
2023-04-23T09:59:19.589Z,16.9
2023-04-23T10:00:22.670Z,16.9
2023-04-23T10:01:24.308Z,16.7
2023-04-23T10:02:25.938Z,16.6
2023-04-23T10:03:27.673Z,16.5
2023-04-23T10:04:29.405Z,16.5
2023-04-23T10:06:00.147Z,16.5
2023-04-23T10:07:20.842Z,16.4
2023-04-23T10:08:22.009Z,16.3
2023-04-23T10:09:23.170Z,16
2023-04-23T10:10:24.345Z,15.9
2023-04-23T10:11:25.515Z,15.8
2023-04-23T10:12:54.666Z,15.8
2023-04-23T10:13:56.179Z,15.6
2023-04-23T10:14:57.349Z,15.6
2023-04-23T10:16:25.384Z,15.5
2023-04-23T10:17:28.117Z,15.4
2023-04-23T10:18:29.251Z,15.3
2023-04-23T10:19:30.419Z,15.1
2023-04-23T10:20:31.616Z,15.2
2023-04-23T10:21:57.964Z,15.3
2023-04-23T10:23:03.513Z,15.1
2023-04-23T10:24:04.679Z,14.5
2023-04-23T10:25:05.847Z,14.5
2023-04-23T10:26:07.089Z,14.7
2023-04-23T10:27:33.171Z,14.6
2023-04-23T10:28:34.680Z,14.2
2023-04-23T10:29:35.847Z,14
2023-04-23T10:30:37.014Z,14
2023-04-23T10:31:38.511Z,13.8
2023-04-23T10:32:39.677Z,13.7
2023-04-23T10:33:59.744Z,13.8
2023-04-23T10:35:01.118Z,14
2023-04-23T10:36:02.301Z,13.8
2023-04-23T10:37:06.289Z,13.4
2023-04-23T10:38:07.515Z,13.4
2023-04-23T10:39:09.914Z,13.6
2023-04-23T10:40:11.045Z,13.8
2023-04-23T10:41:12.255Z,13.8
2023-04-23T10:42:13.445Z,13.7
2023-04-23T10:43:14.642Z,13.6
2023-04-23T10:44:24.267Z,13.7
2023-04-23T10:45:34.203Z,13.5
2023-04-23T10:46:39.999Z,13.5
2023-04-23T10:47:43.454Z,13.3
2023-04-23T10:48:44.588Z,13.1
2023-04-23T10:49:45.757Z,13.2
2023-04-23T10:52:14.330Z,13.5
2023-04-23T10:53:18.961Z,12.8
2023-04-23T10:54:20.227Z,12.9
2023-04-23T10:55:21.459Z,12.9
2023-04-23T10:56:22.631Z,13.1
2023-04-23T10:57:23.793Z,13.2
2023-04-23T10:58:24.959Z,12.7
2023-04-23T10:59:26.128Z,12.5
2023-04-23T11:00:27.288Z,12.5
2023-04-23T11:01:28.582Z,12.4
2023-04-23T11:02:30.314Z,12.5
2023-04-23T11:03:32.469Z,12.3
2023-04-23T11:04:34.567Z,12.3
2023-04-23T11:05:35.874Z,12.3
2023-04-23T11:06:37.030Z,12.5
2023-04-23T11:07:38.221Z,12.3
2023-04-23T11:08:39.365Z,12.2
2023-04-23T11:09:41.648Z,12.8
2023-04-23T11:10:43.068Z,12.6
2023-04-23T11:11:44.232Z,12.1
2023-04-23T11:12:45.417Z,12.3
2023-04-23T11:13:46.566Z,11.3
2023-04-23T11:14:47.733Z,12.6
2023-04-23T11:15:48.898Z,12.5
2023-04-23T11:16:50.227Z,12
2023-04-23T11:17:51.576Z,12.2
2023-04-23T11:18:52.699Z,7.6
2023-04-23T11:19:53.868Z,9.4
2023-04-23T11:20:55.038Z,10.8
2023-04-23T11:21:56.202Z,11.9
2023-04-23T11:22:57.419Z,12.9
2023-04-23T11:23:58.559Z,13.8
2023-04-23T11:24:59.730Z,14.5
2023-04-23T11:26:00.900Z,15.2
2023-04-23T11:27:02.180Z,15.8
2023-04-23T11:28:03.334Z,16.3
2023-04-23T11:29:04.506Z,16.5
2023-04-23T11:30:05.671Z,16.7
2023-04-23T11:31:06.835Z,17.1
2023-04-23T11:32:08.022Z,17.6
2023-04-23T11:33:09.193Z,18
2023-04-23T11:34:10.357Z,18.4
2023-04-23T11:35:14.466Z,18.8
2023-04-23T11:36:15.633Z,19.2
2023-04-23T11:37:16.801Z,19.5
2023-04-23T11:38:17.985Z,19.6
2023-04-23T11:39:19.129Z,19.9
2023-04-23T11:40:20.449Z,20.3
2023-04-23T11:41:21.607Z,20.6
2023-04-23T11:42:22.775Z,20.8
2023-04-23T11:43:23.948Z,25.1
2023-04-23T11:44:25.117Z,21.9
2023-04-23T11:45:26.347Z,22.2
2023-04-23T11:46:27.847Z,20.4
2023-04-23T11:47:29.028Z,19.2
2023-04-23T11:48:30.182Z,15.8
2023-04-23T11:49:31.373Z,17.1
2023-04-23T11:50:32.522Z,18
2023-04-23T11:51:33.685Z,18.6
2023-04-23T11:52:34.850Z,19.2
2023-04-23T11:53:36.041Z,19.5
2023-04-23T11:59:31.895Z,24.7
2023-04-23T12:00:33.067Z,25.6
2023-04-23T12:01:34.504Z,26.2
2023-04-23T12:02:36.116Z,26.6
2023-04-23T12:03:37.942Z,27
2023-04-23T12:04:42.032Z,27.4
2023-04-23T12:05:43.369Z,27.8
2023-04-23T12:06:44.526Z,28.2
2023-04-23T12:07:45.695Z,28.7
2023-04-23T12:08:46.886Z,29.1
2023-04-23T12:09:48.046Z,29.6
2023-04-23T12:10:49.224Z,30
2023-04-23T12:11:50.381Z,30.3
2023-04-23T12:12:51.548Z,30.6
2023-04-23T12:13:52.711Z,31
2023-04-23T12:14:53.881Z,31.3
2023-04-23T12:15:55.053Z,31.6
2023-04-23T12:16:56.216Z,31.8
2023-04-23T12:17:57.573Z,32
2023-04-23T12:18:58.759Z,32.3
2023-04-23T12:19:59.934Z,32.4
2023-04-23T12:21:01.188Z,32.7
2023-04-23T12:22:02.335Z,32.9
2023-04-23T12:23:03.502Z,33.2
2023-04-23T12:24:04.691Z,33.3
2023-04-23T12:25:05.853Z,33.5
2023-04-23T12:26:07.004Z,33.5
2023-04-23T12:27:08.164Z,33.8
2023-04-23T12:28:09.353Z,33.5
2023-04-23T12:29:12.995Z,33.8
2023-04-23T12:30:14.136Z,33.9
2023-04-23T12:31:15.402Z,34
2023-04-23T12:32:16.559Z,34.1
2023-04-23T12:33:17.723Z,34.1
2023-04-23T12:34:18.889Z,34.3
2023-04-23T12:35:20.060Z,34.4
2023-04-23T12:36:21.225Z,34.5
2023-04-23T12:37:25.495Z,34.5
2023-04-23T12:38:26.649Z,35
2023-04-23T12:39:27.843Z,34.5
2023-04-23T12:40:28.984Z,34.2
2023-04-23T12:41:33.915Z,34.1
2023-04-23T12:42:35.085Z,33.9
2023-04-23T12:43:38.423Z,33.7
2023-04-23T12:44:39.559Z,33.5
2023-04-23T12:45:40.915Z,33.3
2023-04-23T12:46:42.148Z,33.1
2023-04-23T12:47:43.376Z,33.1
2023-04-23T12:48:44.540Z,32.9
2023-04-23T12:49:46.260Z,33
2023-04-23T12:50:47.424Z,33.1
2023-04-23T12:51:48.588Z,33
2023-04-23T12:52:49.758Z,33.1
2023-04-23T12:53:50.922Z,33.1
2023-04-23T12:54:52.304Z,33
2023-04-23T12:55:53.542Z,32.7
2023-04-23T12:56:54.711Z,32.7
2023-04-23T12:57:55.874Z,32.3
2023-04-23T12:58:57.052Z,32.6
2023-04-23T12:59:58.207Z,32.2
2023-04-23T13:00:59.486Z,32.4
2023-04-23T13:02:00.767Z,32.6
2023-04-23T13:03:02.102Z,32.6
2023-04-23T13:04:07.379Z,32.8
2023-04-23T13:05:08.587Z,33.1
2023-04-23T13:06:09.806Z,32.7
2023-04-23T13:07:10.972Z,32.8
2023-04-23T13:08:12.143Z,32.9
2023-04-23T13:09:13.553Z,32.6
2023-04-23T13:10:14.772Z,32.4
2023-04-23T13:11:15.918Z,32.4
2023-04-23T13:12:17.136Z,32.6
2023-04-23T13:13:18.280Z,31.8
2023-04-23T13:14:19.673Z,32.2
2023-04-23T13:15:21.353Z,32.4
2023-04-23T13:16:22.642Z,32.7
2023-04-23T13:17:24.004Z,32.7
2023-04-23T13:18:25.166Z,32.9
2023-04-23T13:19:26.796Z,32.4
2023-04-23T13:20:27.946Z,32.2
2023-04-23T13:21:29.321Z,32.1
2023-04-23T13:22:30.506Z,31.8
2023-04-23T13:23:31.681Z,31.6
2023-04-23T13:24:32.825Z,31.5
2023-04-23T13:25:34.026Z,31.4
2023-04-23T13:26:35.200Z,31.3
2023-04-23T13:27:36.348Z,31.3
2023-04-23T13:28:37.515Z,30.8
2023-04-23T13:29:38.718Z,31.4
2023-04-23T13:30:39.881Z,30.8
2023-04-23T13:31:41.169Z,31.4
2023-04-23T13:32:42.358Z,31.2
2023-04-23T13:33:43.511Z,31.4
2023-04-23T13:34:44.686Z,31.5
2023-04-23T13:35:45.856Z,31.6
2023-04-23T13:36:47.046Z,31.9
2023-04-23T13:37:48.214Z,32.1
2023-04-23T13:38:49.358Z,32.2
2023-04-23T13:39:50.551Z,32.2
2023-04-23T13:40:51.741Z,32.5
2023-04-23T13:42:10.624Z,32.1
2023-04-23T13:43:11.836Z,31.9
2023-04-23T13:44:13.003Z,32.2
2023-04-23T13:45:15.610Z,32.3
2023-04-23T13:46:18.975Z,32.5
2023-04-23T13:47:20.128Z,32.6
2023-04-23T13:48:21.310Z,32.8
2023-04-23T13:49:22.466Z,32.9
2023-04-23T13:50:23.650Z,33
2023-04-23T13:51:36.885Z,33.1
2023-04-23T13:52:38.042Z,33.2